createdAt,value
2022-12-15T00:00:25.814Z,0.00
2022-12-15T00:01:24.783Z,0.00
2022-12-15T00:02:24.851Z,0.00
2022-12-15T00:03:24.856Z,0.00
2022-12-15T00:04:24.738Z,0.00
2022-12-15T00:05:24.708Z,0.00
2022-12-15T00:06:24.770Z,0.00
2022-12-15T00:07:24.691Z,0.00
2022-12-15T00:08:24.691Z,0.00
2022-12-15T00:09:29.309Z,0.00
2022-12-15T00:10:25.654Z,0.00
2022-12-15T00:11:24.645Z,0.00
2022-12-15T00:12:24.652Z,0.00
2022-12-15T00:13:24.646Z,0.00
2022-12-15T00:14:24.621Z,0.00
2022-12-15T00:15:24.630Z,0.00
2022-12-15T00:16:24.735Z,0.00
2022-12-15T00:17:24.648Z,0.00
2022-12-15T00:18:24.580Z,0.00
2022-12-15T00:19:24.572Z,0.00
2022-12-15T00:20:24.581Z,0.00
2022-12-15T00:21:24.569Z,0.00
2022-12-15T00:22:24.527Z,0.00
2022-12-15T00:23:24.520Z,0.00
2022-12-15T00:24:24.544Z,0.00
2022-12-15T00:25:24.490Z,0.00
2022-12-15T00:26:24.498Z,0.00
2022-12-15T00:27:24.473Z,0.00
2022-12-15T00:28:24.457Z,0.00
2022-12-15T00:29:24.451Z,0.00
2022-12-15T00:30:24.457Z,0.00
2022-12-15T00:31:24.457Z,0.00
2022-12-15T00:32:24.468Z,0.00
2022-12-15T00:33:24.421Z,0.00
2022-12-15T00:34:24.392Z,0.00
2022-12-15T00:35:24.376Z,0.00
2022-12-15T00:36:24.395Z,0.00
2022-12-15T00:37:24.367Z,0.00
2022-12-15T00:38:24.371Z,0.00
2022-12-15T00:39:24.335Z,0.00
2022-12-15T00:40:24.327Z,0.00
2022-12-15T00:41:24.312Z,0.00
2022-12-15T00:42:24.386Z,0.00
2022-12-15T00:43:24.326Z,0.00
2022-12-15T00:44:24.296Z,0.00
2022-12-15T00:45:24.269Z,0.00
2022-12-15T00:46:24.298Z,0.00
2022-12-15T00:47:24.247Z,0.00
2022-12-15T00:48:24.271Z,0.00
2022-12-15T00:49:24.262Z,0.00
2022-12-15T00:50:24.228Z,0.00
2022-12-15T00:51:24.209Z,0.00
2022-12-15T00:52:24.192Z,0.00
2022-12-15T00:53:24.181Z,0.00
2022-12-15T00:54:24.194Z,0.00
2022-12-15T00:55:24.185Z,0.00
2022-12-15T00:56:24.160Z,0.00
2022-12-15T00:57:24.139Z,0.00
2022-12-15T00:58:24.124Z,0.00
2022-12-15T00:59:24.126Z,0.00
2022-12-15T01:00:24.138Z,0.00
2022-12-15T01:01:24.189Z,0.00
2022-12-15T01:02:24.212Z,0.00
2022-12-15T01:03:24.188Z,0.00
2022-12-15T01:04:24.060Z,0.00
2022-12-15T01:05:24.150Z,0.00
2022-12-15T01:06:24.057Z,0.00
2022-12-15T01:07:24.044Z,0.00
2022-12-15T01:08:24.026Z,0.00
2022-12-15T01:09:24.005Z,0.00
2022-12-15T01:10:24.011Z,0.00
2022-12-15T01:11:23.985Z,0.00
2022-12-15T01:12:24.012Z,0.00
2022-12-15T01:13:23.978Z,0.00
2022-12-15T01:14:23.949Z,0.00
2022-12-15T01:15:23.938Z,0.00
2022-12-15T01:16:23.995Z,0.00
2022-12-15T01:17:23.924Z,0.00
2022-12-15T01:18:23.953Z,0.00
2022-12-15T01:19:23.892Z,0.00
2022-12-15T01:20:23.881Z,0.00
2022-12-15T01:21:25.217Z,0.00
2022-12-15T01:22:23.860Z,0.00
2022-12-15T01:23:23.854Z,0.00
2022-12-15T01:24:23.881Z,0.00
2022-12-15T01:25:23.825Z,0.00
2022-12-15T01:26:23.822Z,0.00
2022-12-15T01:27:23.802Z,0.00
2022-12-15T01:28:23.809Z,0.00
2022-12-15T01:29:23.791Z,0.00
2022-12-15T01:30:23.804Z,0.00
2022-12-15T01:31:23.829Z,0.00
2022-12-15T01:32:23.748Z,0.00
2022-12-15T01:33:23.738Z,0.00
2022-12-15T01:34:23.727Z,0.00
2022-12-15T01:35:23.741Z,0.00
2022-12-15T01:36:23.743Z,0.00
2022-12-15T01:37:23.720Z,0.00
2022-12-15T01:38:23.682Z,0.00
2022-12-15T01:39:23.677Z,0.00
2022-12-15T01:40:23.671Z,0.00
2022-12-15T01:41:23.656Z,0.00
2022-12-15T01:42:23.689Z,0.00
2022-12-15T01:43:23.630Z,0.00
2022-12-15T01:44:23.617Z,0.00
2022-12-15T01:45:23.620Z,0.00
2022-12-15T01:46:23.700Z,0.00
2022-12-15T01:47:23.605Z,0.00
2022-12-15T01:48:23.573Z,0.00
2022-12-15T01:49:23.577Z,0.00
2022-12-15T01:50:23.550Z,0.00
2022-12-15T01:51:23.555Z,0.00
2022-12-15T01:52:23.538Z,0.00
2022-12-15T01:53:23.535Z,0.00
2022-12-15T01:54:23.507Z,0.00
2022-12-15T01:55:23.514Z,0.00
2022-12-15T01:56:23.491Z,0.00
2022-12-15T01:57:23.498Z,0.00
2022-12-15T01:58:23.478Z,0.00
2022-12-15T01:59:23.448Z,0.00
2022-12-15T02:00:23.522Z,0.00
2022-12-15T02:01:23.655Z,0.00
2022-12-15T02:02:23.598Z,0.00
2022-12-15T02:03:23.504Z,0.00
2022-12-15T02:04:23.405Z,0.00
2022-12-15T02:05:23.384Z,0.00
2022-12-15T02:06:23.372Z,0.00
2022-12-15T02:07:23.382Z,0.00
2022-12-15T02:08:23.373Z,0.00
2022-12-15T02:09:23.368Z,0.00
2022-12-15T02:10:23.350Z,0.00
2022-12-15T02:11:23.316Z,0.00
2022-12-15T02:12:23.307Z,0.00
2022-12-15T02:13:23.294Z,0.00
2022-12-15T02:14:23.325Z,0.00
2022-12-15T02:15:23.296Z,0.00
2022-12-15T02:16:23.367Z,0.00
2022-12-15T02:17:23.249Z,0.00
2022-12-15T02:18:23.241Z,0.00
2022-12-15T02:19:23.234Z,0.00
2022-12-15T02:20:23.266Z,0.00
2022-12-15T02:21:23.214Z,0.00
2022-12-15T02:22:23.214Z,0.00
2022-12-15T02:23:23.183Z,0.00
2022-12-15T02:24:23.175Z,0.00
2022-12-15T02:25:23.210Z,0.00
2022-12-15T02:26:23.177Z,0.00
2022-12-15T02:27:23.150Z,0.00
2022-12-15T02:28:23.160Z,0.00
2022-12-15T02:29:23.117Z,0.00
2022-12-15T02:30:23.110Z,0.00
2022-12-15T02:31:23.211Z,0.00
2022-12-15T02:32:23.117Z,0.00
2022-12-15T02:33:23.086Z,0.00
2022-12-15T02:34:23.065Z,0.00
2022-12-15T02:35:23.052Z,0.00
2022-12-15T02:36:23.043Z,0.00
2022-12-15T02:37:23.059Z,0.00
2022-12-15T02:38:23.050Z,0.00
2022-12-15T02:39:23.028Z,0.00
2022-12-15T02:40:23.033Z,0.00
2022-12-15T02:41:23.018Z,0.00
2022-12-15T02:42:23.000Z,0.00
2022-12-15T02:43:22.964Z,0.00
2022-12-15T02:44:22.993Z,0.00
2022-12-15T02:45:23.041Z,0.00
2022-12-15T02:46:22.932Z,0.00
2022-12-15T02:47:22.919Z,0.00
2022-12-15T02:48:22.928Z,0.00
2022-12-15T02:49:22.904Z,0.00
2022-12-15T02:50:22.931Z,0.00
2022-12-15T02:51:22.875Z,0.00
2022-12-15T02:52:22.866Z,0.00
2022-12-15T02:53:22.868Z,0.00
2022-12-15T02:54:22.861Z,0.00
2022-12-15T02:55:22.841Z,0.00
2022-12-15T02:56:22.868Z,0.00
2022-12-15T02:57:22.877Z,0.00
2022-12-15T02:58:22.800Z,0.00
2022-12-15T02:59:22.787Z,0.00
2022-12-15T03:00:22.793Z,0.00
2022-12-15T03:01:22.871Z,0.00
2022-12-15T03:02:22.855Z,0.00
2022-12-15T03:03:22.866Z,0.00
2022-12-15T03:04:22.738Z,0.00
2022-12-15T03:05:22.729Z,0.00
2022-12-15T03:06:22.744Z,0.00
2022-12-15T03:07:22.718Z,0.00
2022-12-15T03:08:22.731Z,0.00
2022-12-15T03:09:22.685Z,0.00
2022-12-15T03:10:22.670Z,0.00
2022-12-15T03:11:22.668Z,0.00
2022-12-15T03:12:22.651Z,0.00
2022-12-15T03:13:22.677Z,0.00
2022-12-15T03:14:22.659Z,0.00
2022-12-15T03:15:22.616Z,0.00
2022-12-15T03:16:22.690Z,0.00
2022-12-15T03:17:22.602Z,0.00
2022-12-15T03:18:22.587Z,0.00
2022-12-15T03:19:22.582Z,0.00
2022-12-15T03:20:22.597Z,0.00
2022-12-15T03:21:22.548Z,0.00
2022-12-15T03:22:22.663Z,0.00
2022-12-15T03:23:22.544Z,0.00
2022-12-15T03:24:22.525Z,0.00
2022-12-15T03:25:22.520Z,0.00
2022-12-15T03:26:22.545Z,0.00
2022-12-15T03:27:22.491Z,0.00
2022-12-15T03:28:22.491Z,0.00
2022-12-15T03:29:22.482Z,0.00
2022-12-15T03:30:22.469Z,0.00
2022-12-15T03:31:22.506Z,0.00
2022-12-15T03:32:22.487Z,0.00
2022-12-15T03:33:22.416Z,0.00
2022-12-15T03:34:22.412Z,0.00
2022-12-15T03:35:22.424Z,0.00
2022-12-15T03:36:22.389Z,0.00
2022-12-15T03:37:22.371Z,0.00
2022-12-15T03:38:22.382Z,0.00
2022-12-15T03:39:22.351Z,0.00
2022-12-15T03:40:22.363Z,0.00
2022-12-15T03:41:22.335Z,0.00
2022-12-15T03:42:22.335Z,0.00
2022-12-15T03:43:22.308Z,0.00
2022-12-15T03:44:22.317Z,0.00
2022-12-15T03:45:22.335Z,0.00
2022-12-15T03:46:22.345Z,0.00
2022-12-15T03:47:22.273Z,0.00
2022-12-15T03:48:22.267Z,0.00
2022-12-15T03:49:22.249Z,0.00
2022-12-15T03:50:22.250Z,0.00
2022-12-15T03:51:22.219Z,0.00
2022-12-15T03:52:22.211Z,0.00
2022-12-15T03:53:22.214Z,0.00
2022-12-15T03:54:22.209Z,0.00
2022-12-15T03:55:22.180Z,0.00
2022-12-15T03:56:22.178Z,0.00
2022-12-15T03:57:22.169Z,0.00
2022-12-15T03:58:22.147Z,0.00
2022-12-15T03:59:22.149Z,0.00
2022-12-15T04:00:22.122Z,0.00
2022-12-15T04:01:22.257Z,0.00
2022-12-15T04:02:22.331Z,0.00
2022-12-15T04:03:22.137Z,0.00
2022-12-15T04:04:22.103Z,0.00
2022-12-15T04:05:22.081Z,0.00
2022-12-15T04:06:22.060Z,0.00
2022-12-15T04:07:22.049Z,0.00
2022-12-15T04:08:22.057Z,0.00
2022-12-15T04:09:22.047Z,0.00
2022-12-15T04:10:22.018Z,0.00
2022-12-15T04:11:22.019Z,0.00
2022-12-15T04:12:21.990Z,0.00
2022-12-15T04:13:21.990Z,0.00
2022-12-15T04:14:21.990Z,0.00
2022-12-15T04:15:21.972Z,0.00
2022-12-15T04:16:30.691Z,0.00
2022-12-15T04:17:21.951Z,0.00
2022-12-15T04:18:21.933Z,0.00
2022-12-15T04:19:21.916Z,0.00
2022-12-15T04:20:21.909Z,0.00
2022-12-15T04:21:21.921Z,0.00
2022-12-15T04:22:21.895Z,0.00
2022-12-15T04:23:21.920Z,0.00
2022-12-15T04:24:21.859Z,0.00
2022-12-15T04:25:21.850Z,0.00
2022-12-15T04:26:22.016Z,0.00
2022-12-15T04:27:21.830Z,0.00
2022-12-15T04:28:21.838Z,0.00
2022-12-15T04:29:21.851Z,0.00
2022-12-15T04:30:21.794Z,0.00
2022-12-15T04:31:21.876Z,0.00
2022-12-15T04:32:21.811Z,0.00
2022-12-15T04:33:25.116Z,0.00
2022-12-15T04:34:22.755Z,0.00
2022-12-15T04:35:21.738Z,0.00
2022-12-15T04:36:21.741Z,0.00
2022-12-15T04:37:21.734Z,0.00
2022-12-15T04:38:21.731Z,0.00
2022-12-15T04:39:21.707Z,0.00
2022-12-15T04:40:21.699Z,0.00
2022-12-15T04:41:21.705Z,0.00
2022-12-15T04:42:21.665Z,0.00
2022-12-15T04:43:21.665Z,0.00
2022-12-15T04:44:21.658Z,0.00
2022-12-15T04:45:21.673Z,0.00
2022-12-15T04:46:21.713Z,0.00
2022-12-15T04:47:21.619Z,0.00
2022-12-15T04:48:21.623Z,0.00
2022-12-15T04:49:21.688Z,0.00
2022-12-15T04:50:21.578Z,0.00
2022-12-15T04:51:23.849Z,0.00
2022-12-15T04:52:21.555Z,0.00
2022-12-15T04:53:21.545Z,0.00
2022-12-15T04:54:21.563Z,0.00
2022-12-15T04:55:21.576Z,0.00
2022-12-15T04:56:21.511Z,0.00
2022-12-15T04:57:21.511Z,0.00
2022-12-15T04:58:21.488Z,0.00
2022-12-15T04:59:21.486Z,0.00
2022-12-15T05:00:21.477Z,0.00
2022-12-15T05:01:21.609Z,0.00
2022-12-15T05:02:21.691Z,0.00
2022-12-15T05:03:21.452Z,0.00
2022-12-15T05:04:21.553Z,0.00
2022-12-15T05:05:21.411Z,0.00
2022-12-15T05:06:21.399Z,0.00
2022-12-15T05:07:21.426Z,0.00
2022-12-15T05:08:21.388Z,0.00
2022-12-15T05:09:21.425Z,0.00
2022-12-15T05:10:21.358Z,0.00
2022-12-15T05:11:21.346Z,0.00
2022-12-15T05:12:21.334Z,0.00
2022-12-15T05:13:21.346Z,0.00
2022-12-15T05:14:21.350Z,0.00
2022-12-15T05:15:21.330Z,0.00
2022-12-15T05:16:21.343Z,0.00
2022-12-15T05:17:21.387Z,0.00
2022-12-15T05:18:21.288Z,0.00
2022-12-15T05:19:21.290Z,0.00
2022-12-15T05:20:21.383Z,0.00
2022-12-15T05:21:21.237Z,0.00
2022-12-15T05:22:21.224Z,0.00
2022-12-15T05:23:21.223Z,0.00
2022-12-15T05:24:21.230Z,0.00
2022-12-15T05:25:21.217Z,0.00
2022-12-15T05:26:21.191Z,0.00
2022-12-15T05:27:21.203Z,0.00
2022-12-15T05:28:21.159Z,0.00
2022-12-15T05:29:21.158Z,0.00
2022-12-15T05:30:21.148Z,0.00
2022-12-15T05:31:21.211Z,0.00
2022-12-15T05:32:21.145Z,0.00
2022-12-15T05:33:21.108Z,0.00
2022-12-15T05:34:21.110Z,0.00
2022-12-15T05:35:21.100Z,0.00
2022-12-15T05:36:21.088Z,0.00
2022-12-15T05:37:21.082Z,0.00
2022-12-15T05:38:21.075Z,0.00
2022-12-15T05:39:21.064Z,0.00
2022-12-15T05:40:21.030Z,0.00
2022-12-15T05:41:21.039Z,0.00
2022-12-15T05:42:21.044Z,0.00
2022-12-15T05:43:26.165Z,0.00
2022-12-15T05:44:21.993Z,0.00
2022-12-15T05:45:20.976Z,0.00
2022-12-15T05:46:21.034Z,0.00
2022-12-15T05:47:20.958Z,0.00
2022-12-15T05:48:20.983Z,0.00
2022-12-15T05:49:20.978Z,0.00
2022-12-15T05:50:20.921Z,0.00
2022-12-15T05:51:20.911Z,0.00
2022-12-15T05:52:20.932Z,0.00
2022-12-15T05:53:20.914Z,0.00
2022-12-15T05:54:20.980Z,0.00
2022-12-15T05:55:20.919Z,0.00
2022-12-15T05:56:20.891Z,0.00
2022-12-15T05:57:20.844Z,0.00
2022-12-15T05:58:20.846Z,0.00
2022-12-15T05:59:20.922Z,0.00
2022-12-15T06:00:20.834Z,0.00
2022-12-15T06:01:20.853Z,0.00
2022-12-15T06:02:20.855Z,0.00
2022-12-15T06:03:20.779Z,0.00
2022-12-15T06:04:20.947Z,0.00
2022-12-15T06:05:20.793Z,0.00
2022-12-15T06:06:20.784Z,0.00
2022-12-15T06:07:20.753Z,0.00
2022-12-15T06:08:20.738Z,0.00
2022-12-15T06:09:20.841Z,0.00
2022-12-15T06:10:20.705Z,0.00
2022-12-15T06:11:20.695Z,0.00
2022-12-15T06:12:20.727Z,0.00
2022-12-15T06:13:20.667Z,0.00
2022-12-15T06:14:20.751Z,0.00
2022-12-15T06:15:20.650Z,0.00
2022-12-15T06:16:20.718Z,0.00
2022-12-15T06:17:20.629Z,0.00
2022-12-15T06:18:20.641Z,0.00
2022-12-15T06:19:20.733Z,0.00
2022-12-15T06:20:20.593Z,0.00
2022-12-15T06:21:20.591Z,0.00
2022-12-15T06:22:20.586Z,0.00
2022-12-15T06:23:20.593Z,0.00
2022-12-15T06:24:20.705Z,0.00
2022-12-15T06:25:20.570Z,0.00
2022-12-15T06:26:20.533Z,0.00
2022-12-15T06:27:20.521Z,0.00
2022-12-15T06:28:20.504Z,0.00
2022-12-15T06:29:20.611Z,0.00
2022-12-15T06:30:20.524Z,0.00
2022-12-15T06:31:20.491Z,0.00
2022-12-15T06:32:20.473Z,0.00
2022-12-15T06:33:20.455Z,0.00
2022-12-15T06:34:20.494Z,0.00
2022-12-15T06:35:20.444Z,0.00
2022-12-15T06:36:20.475Z,0.00
2022-12-15T06:37:20.427Z,0.00
2022-12-15T06:38:20.396Z,0.00
2022-12-15T06:39:20.395Z,0.00
2022-12-15T06:40:20.395Z,4.00
2022-12-15T06:41:20.492Z,4.00
2022-12-15T06:42:20.352Z,4.00
2022-12-15T06:43:20.389Z,0.00
2022-12-15T06:44:20.332Z,4.00
2022-12-15T06:45:20.356Z,4.00
2022-12-15T06:46:20.355Z,4.00
2022-12-15T06:47:20.310Z,8.00
2022-12-15T06:48:20.286Z,4.00
2022-12-15T06:49:20.334Z,4.00
2022-12-15T06:50:20.267Z,8.00
2022-12-15T06:51:20.286Z,8.00
2022-12-15T06:52:20.252Z,8.00
2022-12-15T06:53:20.259Z,8.00
2022-12-15T06:54:20.253Z,12.00
2022-12-15T06:55:20.231Z,8.00
2022-12-15T06:56:20.217Z,12.00
2022-12-15T06:57:20.190Z,12.00
2022-12-15T06:58:20.193Z,12.00
2022-12-15T06:59:20.197Z,16.00
2022-12-15T07:00:20.157Z,16.00
2022-12-15T07:01:20.390Z,20.00
2022-12-15T07:02:26.886Z,16.00
2022-12-15T07:03:21.336Z,20.00
2022-12-15T07:04:20.233Z,20.00
2022-12-15T07:05:20.129Z,20.00
2022-12-15T07:06:20.090Z,20.00
2022-12-15T07:07:20.113Z,20.00
2022-12-15T07:08:20.075Z,20.00
2022-12-15T07:09:20.063Z,20.00
2022-12-15T07:10:20.057Z,24.00
2022-12-15T07:11:20.062Z,28.00
2022-12-15T07:12:20.049Z,28.00
2022-12-15T07:13:20.041Z,28.00
2022-12-15T07:14:20.040Z,28.00
2022-12-15T07:15:19.998Z,32.00
2022-12-15T07:16:20.150Z,32.00
2022-12-15T07:17:19.974Z,32.00
2022-12-15T07:18:19.973Z,36.00
2022-12-15T07:19:19.978Z,36.00
2022-12-15T07:20:22.861Z,40.00
2022-12-15T07:21:21.607Z,40.00
2022-12-15T07:22:19.958Z,40.00
2022-12-15T07:23:29.666Z,40.00
2022-12-15T07:24:20.903Z,44.00
2022-12-15T07:25:19.919Z,64.00
2022-12-15T07:26:19.914Z,80.00
2022-12-15T07:27:19.877Z,84.00
2022-12-15T07:28:25.478Z,88.00
2022-12-15T07:29:23.525Z,88.00
2022-12-15T07:30:19.863Z,92.00
2022-12-15T07:31:19.917Z,88.00
2022-12-15T07:32:19.808Z,88.00
2022-12-15T07:33:19.816Z,92.00
2022-12-15T07:34:19.813Z,96.00
2022-12-15T07:35:19.786Z,100.00
2022-12-15T07:36:19.784Z,104.00
2022-12-15T07:37:19.767Z,112.00
2022-12-15T07:38:19.746Z,112.00
2022-12-15T07:39:19.754Z,116.00
2022-12-15T07:40:19.719Z,120.00
2022-12-15T07:41:19.786Z,124.00
2022-12-15T07:42:19.714Z,104.00
2022-12-15T07:43:19.700Z,112.00
2022-12-15T07:44:19.727Z,120.00
2022-12-15T07:45:19.681Z,120.00
2022-12-15T07:46:19.787Z,128.00
2022-12-15T07:47:19.653Z,160.00
2022-12-15T07:48:19.654Z,172.00
2022-12-15T07:49:19.642Z,180.00
2022-12-15T07:50:19.624Z,188.00
2022-12-15T07:51:20.270Z,192.00
2022-12-15T07:52:19.600Z,200.00
2022-12-15T07:53:19.580Z,204.00
2022-12-15T07:54:19.648Z,204.00
2022-12-15T07:55:32.477Z,208.00
2022-12-15T07:56:20.576Z,212.00
2022-12-15T07:57:19.536Z,216.00
2022-12-15T07:58:19.525Z,220.00
2022-12-15T07:59:19.522Z,224.00
2022-12-15T08:00:19.578Z,232.00
2022-12-15T08:01:19.654Z,240.00
2022-12-15T08:02:19.708Z,252.00
2022-12-15T08:03:19.662Z,260.00
2022-12-15T08:04:19.469Z,260.00
2022-12-15T08:05:19.479Z,276.00
2022-12-15T08:06:19.457Z,280.00
2022-12-15T08:07:19.448Z,288.00
2022-12-15T08:08:19.440Z,288.00
2022-12-15T08:09:19.408Z,296.00
2022-12-15T08:10:19.393Z,288.00
2022-12-15T08:11:19.400Z,280.00
2022-12-15T08:12:19.411Z,272.00
2022-12-15T08:13:45.003Z,260.00
2022-12-15T08:14:20.895Z,268.00
2022-12-15T08:15:19.340Z,264.00
2022-12-15T08:16:19.420Z,268.00
2022-12-15T08:17:19.340Z,288.00
2022-12-15T08:18:19.306Z,292.00
2022-12-15T08:19:19.311Z,300.00
2022-12-15T08:20:19.318Z,312.00
2022-12-15T08:21:19.277Z,320.00
2022-12-15T08:22:19.269Z,324.00
2022-12-15T08:23:19.256Z,316.00
2022-12-15T08:24:19.278Z,308.00
2022-12-15T08:25:19.236Z,308.00
2022-12-15T08:26:20.067Z,312.00
2022-12-15T08:27:19.217Z,308.00
2022-12-15T08:28:19.200Z,316.00
2022-12-15T08:30:20.191Z,332.00
2022-12-15T08:31:19.336Z,360.00
2022-12-15T08:32:19.266Z,388.00
2022-12-15T08:33:19.267Z,404.00
2022-12-15T08:34:19.154Z,420.00
2022-12-15T08:35:46.898Z,436.00
2022-12-15T08:36:20.143Z,436.00
2022-12-15T08:37:19.129Z,436.00
2022-12-15T08:38:19.086Z,424.00
2022-12-15T08:39:19.076Z,420.00
2022-12-15T08:40:19.088Z,416.00
2022-12-15T08:41:19.076Z,412.00
2022-12-15T08:42:19.057Z,412.00
2022-12-15T08:43:19.032Z,404.00
2022-12-15T08:44:19.031Z,400.00
2022-12-15T08:45:19.011Z,408.00
2022-12-15T08:46:19.059Z,416.00
2022-12-15T08:47:18.989Z,416.00
2022-12-15T08:48:19.016Z,420.00
2022-12-15T08:49:22.151Z,416.00
2022-12-15T08:50:18.954Z,420.00
2022-12-15T08:51:18.942Z,428.00
2022-12-15T08:52:18.971Z,432.00
2022-12-15T08:53:31.418Z,436.00
2022-12-15T08:54:19.953Z,444.00
2022-12-15T08:55:22.400Z,448.00
2022-12-15T08:56:18.906Z,444.00
2022-12-15T08:57:18.879Z,440.00
2022-12-15T08:58:18.894Z,436.00
2022-12-15T08:59:18.869Z,452.00
2022-12-15T09:00:18.861Z,484.00
2022-12-15T09:01:22.977Z,520.00
2022-12-15T09:02:19.973Z,548.00
2022-12-15T09:03:18.815Z,560.00
2022-12-15T09:04:18.923Z,560.00
2022-12-15T09:05:18.824Z,568.00
2022-12-15T09:06:18.783Z,600.00
2022-12-15T09:07:18.773Z,612.00
2022-12-15T09:08:18.756Z,632.00
2022-12-15T09:09:18.752Z,640.00
2022-12-15T09:10:18.738Z,636.00
2022-12-15T09:11:18.766Z,616.00
2022-12-15T09:12:18.747Z,636.00
2022-12-15T09:13:18.701Z,688.00
2022-12-15T09:14:22.793Z,724.00
2022-12-15T09:15:26.112Z,748.00
2022-12-15T09:16:19.756Z,768.00
2022-12-15T09:17:18.729Z,808.00
2022-12-15T09:18:18.687Z,868.00
2022-12-15T09:19:18.641Z,884.00
2022-12-15T09:20:18.644Z,792.00
2022-12-15T09:21:18.610Z,760.00
2022-12-15T09:22:18.616Z,748.00
2022-12-15T09:23:18.618Z,736.00
2022-12-15T09:24:28.705Z,744.00
2022-12-15T09:25:19.584Z,736.00
2022-12-15T09:26:18.589Z,728.00
2022-12-15T09:27:18.546Z,748.00
2022-12-15T09:28:18.556Z,704.00
2022-12-15T09:29:18.531Z,720.00
2022-12-15T09:30:18.530Z,692.00
2022-12-15T09:31:18.555Z,640.00
2022-12-15T09:32:18.499Z,596.00
2022-12-15T09:33:18.484Z,512.00
2022-12-15T09:34:18.479Z,468.00
2022-12-15T09:35:18.455Z,464.00
2022-12-15T09:36:18.592Z,476.00
2022-12-15T09:37:18.436Z,512.00
2022-12-15T09:38:18.451Z,516.00
2022-12-15T09:39:18.427Z,512.00
2022-12-15T09:40:18.417Z,484.00
2022-12-15T09:41:18.389Z,440.00
2022-12-15T09:42:18.439Z,432.00
2022-12-15T09:43:34.370Z,452.00
2022-12-15T09:44:19.366Z,480.00
2022-12-15T09:45:18.361Z,500.00
2022-12-15T09:46:18.419Z,500.00
2022-12-15T09:47:18.329Z,496.00
2022-12-15T09:48:18.312Z,484.00
2022-12-15T09:49:18.320Z,496.00
2022-12-15T09:50:18.294Z,508.00
2022-12-15T09:51:18.298Z,524.00
2022-12-15T09:52:18.296Z,528.00
2022-12-15T09:53:52.887Z,520.00
2022-12-15T09:54:19.245Z,508.00
2022-12-15T09:55:18.322Z,492.00
2022-12-15T09:56:18.232Z,504.00
2022-12-15T09:57:18.232Z,516.00
2022-12-15T09:58:18.210Z,532.00
2022-12-15T09:59:18.188Z,532.00
2022-12-15T10:00:18.180Z,528.00
2022-12-15T10:01:18.209Z,540.00
2022-12-15T10:02:18.343Z,556.00
2022-12-15T10:03:18.442Z,560.00
2022-12-15T10:04:18.135Z,560.00
2022-12-15T10:05:18.123Z,552.00
2022-12-15T10:06:21.086Z,552.00
2022-12-15T10:07:18.118Z,548.00
2022-12-15T10:08:18.168Z,536.00
2022-12-15T10:09:18.102Z,528.00
2022-12-15T10:10:18.072Z,532.00
2022-12-15T10:11:18.073Z,532.00
2022-12-15T10:12:18.057Z,528.00
2022-12-15T10:13:18.086Z,528.00
2022-12-15T10:14:18.048Z,524.00
2022-12-15T10:15:18.012Z,520.00
2022-12-15T10:16:18.101Z,532.00
2022-12-15T10:17:17.989Z,532.00
2022-12-15T10:18:18.000Z,536.00
2022-12-15T10:19:18.013Z,536.00
2022-12-15T10:20:17.975Z,544.00
2022-12-15T10:21:17.950Z,552.00
2022-12-15T10:22:17.942Z,560.00
2022-12-15T10:23:18.071Z,568.00
2022-12-15T10:24:37.316Z,576.00
2022-12-15T10:25:25.411Z,592.00
2022-12-15T10:26:18.890Z,604.00
2022-12-15T10:27:17.886Z,616.00
2022-12-15T10:28:17.869Z,628.00
2022-12-15T10:29:17.874Z,648.00
2022-12-15T10:30:17.940Z,660.00
2022-12-15T10:31:17.920Z,668.00
2022-12-15T10:32:17.824Z,684.00
2022-12-15T10:33:17.818Z,684.00
2022-12-15T10:34:17.837Z,684.00
2022-12-15T10:35:17.813Z,676.00
2022-12-15T10:36:17.788Z,672.00
2022-12-15T10:37:17.804Z,664.00
2022-12-15T10:38:17.758Z,656.00
2022-12-15T10:39:17.883Z,644.00
2022-12-15T10:40:17.757Z,628.00
2022-12-15T10:41:17.755Z,624.00
2022-12-15T10:42:17.725Z,616.00
2022-12-15T10:43:17.727Z,620.00
2022-12-15T10:44:17.691Z,612.00
2022-12-15T10:45:17.679Z,604.00
2022-12-15T10:46:17.791Z,600.00
2022-12-15T10:47:17.671Z,604.00
2022-12-15T10:48:17.692Z,592.00
2022-12-15T10:49:17.635Z,580.00
2022-12-15T10:50:24.067Z,568.00
2022-12-15T10:51:18.632Z,572.00
2022-12-15T10:52:17.615Z,572.00
2022-12-15T10:53:17.630Z,580.00
2022-12-15T10:54:17.590Z,576.00
2022-12-15T10:55:17.573Z,576.00
2022-12-15T10:56:17.581Z,560.00
2022-12-15T10:57:17.544Z,544.00
2022-12-15T10:58:17.563Z,528.00
2022-12-15T10:59:17.536Z,516.00
2022-12-15T11:00:17.529Z,520.00
2022-12-15T11:01:17.813Z,512.00
2022-12-15T11:02:23.064Z,512.00
2022-12-15T11:03:18.680Z,508.00
2022-12-15T11:04:17.538Z,516.00
2022-12-15T11:05:17.477Z,524.00
2022-12-15T11:06:17.445Z,536.00
2022-12-15T11:07:17.435Z,528.00
2022-12-15T11:08:17.433Z,504.00
2022-12-15T11:09:17.432Z,512.00
2022-12-15T11:10:17.423Z,524.00
2022-12-15T11:11:17.402Z,552.00
2022-12-15T11:12:17.411Z,548.00
2022-12-15T11:13:17.370Z,540.00
2022-12-15T11:14:17.358Z,544.00
2022-12-15T11:15:17.370Z,552.00
2022-12-15T11:16:17.352Z,560.00
2022-12-15T11:17:17.339Z,592.00
2022-12-15T11:18:17.311Z,620.00
2022-12-15T11:19:17.298Z,640.00
2022-12-15T11:20:17.311Z,652.00
2022-12-15T11:21:17.307Z,656.00
2022-12-15T11:22:17.295Z,660.00
2022-12-15T11:23:17.253Z,664.00
2022-12-15T11:24:17.255Z,676.00
2022-12-15T11:25:17.241Z,696.00
2022-12-15T11:26:17.255Z,720.00
2022-12-15T11:27:17.212Z,732.00
2022-12-15T11:28:17.249Z,740.00
2022-12-15T11:29:17.188Z,744.00
2022-12-15T11:30:17.180Z,748.00
2022-12-15T11:31:17.177Z,752.00
2022-12-15T11:32:17.169Z,744.00
2022-12-15T11:33:17.150Z,748.00
2022-12-15T11:34:17.168Z,736.00
2022-12-15T11:35:17.126Z,716.00
2022-12-15T11:36:17.122Z,708.00
2022-12-15T11:37:17.098Z,700.00
2022-12-15T11:38:17.090Z,692.00
2022-12-15T11:39:17.146Z,688.00
2022-12-15T11:40:17.106Z,688.00
2022-12-15T11:41:17.070Z,672.00
2022-12-15T11:42:17.055Z,664.00
2022-12-15T11:43:17.038Z,648.00
2022-12-15T11:44:17.128Z,648.00
2022-12-15T11:45:17.018Z,656.00
2022-12-15T11:46:17.040Z,612.00
2022-12-15T11:47:17.005Z,596.00
2022-12-15T11:48:16.979Z,584.00
2022-12-15T11:49:16.977Z,572.00
2022-12-15T11:50:16.960Z,576.00
2022-12-15T11:51:16.970Z,576.00
2022-12-15T11:52:16.988Z,584.00
2022-12-15T11:53:16.931Z,608.00
2022-12-15T11:54:16.913Z,612.00
2022-12-15T11:55:16.940Z,616.00
2022-12-15T11:56:16.898Z,604.00
2022-12-15T11:57:16.890Z,596.00
2022-12-15T11:58:16.875Z,588.00
2022-12-15T11:59:16.877Z,580.00
2022-12-15T12:00:16.866Z,572.00
2022-12-15T12:01:16.852Z,556.00
2022-12-15T12:02:16.929Z,544.00
2022-12-15T12:03:16.878Z,532.00
2022-12-15T12:04:16.802Z,520.00
2022-12-15T12:05:16.789Z,504.00
2022-12-15T12:06:17.197Z,488.00
2022-12-15T12:07:16.768Z,488.00
2022-12-15T12:08:16.775Z,480.00
2022-12-15T12:09:16.748Z,476.00
2022-12-15T12:10:16.743Z,508.00
2022-12-15T12:11:16.973Z,504.00
2022-12-15T12:12:16.739Z,496.00
2022-12-15T12:13:16.709Z,504.00
2022-12-15T12:14:16.708Z,504.00
2022-12-15T12:15:16.720Z,460.00
2022-12-15T12:16:16.687Z,452.00
2022-12-15T12:17:16.658Z,448.00
2022-12-15T12:18:16.678Z,440.00
2022-12-15T12:19:16.683Z,432.00
2022-12-15T12:20:16.644Z,420.00
2022-12-15T12:21:16.620Z,420.00
2022-12-15T12:22:16.604Z,424.00
2022-12-15T12:23:16.593Z,432.00
2022-12-15T12:24:16.598Z,444.00
2022-12-15T12:25:16.584Z,448.00
2022-12-15T12:26:16.590Z,448.00
2022-12-15T12:27:16.563Z,452.00
2022-12-15T12:28:16.537Z,456.00
2022-12-15T12:29:16.550Z,464.00
2022-12-15T12:30:16.545Z,456.00
2022-12-15T12:31:16.524Z,472.00
2022-12-15T12:32:16.513Z,480.00
2022-12-15T12:33:16.482Z,476.00
2022-12-15T12:34:16.478Z,472.00
2022-12-15T12:35:30.788Z,472.00
2022-12-15T12:36:17.503Z,476.00
2022-12-15T12:37:16.463Z,492.00
2022-12-15T12:38:16.431Z,496.00
2022-12-15T12:39:16.416Z,496.00
2022-12-15T12:40:16.526Z,496.00
2022-12-15T12:41:16.411Z,500.00
2022-12-15T12:42:16.392Z,504.00
2022-12-15T12:43:16.399Z,504.00
2022-12-15T12:44:16.391Z,504.00
2022-12-15T12:45:16.351Z,508.00
2022-12-15T12:46:16.353Z,508.00
2022-12-15T12:47:16.358Z,508.00
2022-12-15T12:48:16.348Z,512.00
2022-12-15T12:49:21.336Z,516.00
2022-12-15T12:50:17.343Z,520.00
2022-12-15T12:51:16.295Z,524.00
2022-12-15T12:52:16.305Z,532.00
2022-12-15T12:53:16.262Z,536.00
2022-12-15T12:54:16.257Z,540.00
2022-12-15T12:55:16.237Z,540.00
2022-12-15T12:56:16.249Z,548.00